Time;durP1;ratioP1;P1;durP2;ratioP2;P2;SDS_P1;SDS_P2;PMS_P1;PMS_P2;Temp;Humidity;BMP_temperature;BMP_pressure;BME280_temperature;BME280_humidity;BME280_pressure;Samples;Min_cycle;Max_cycle;Signal;HPM_P1;HPM_P2
2022/12/05 00:01:31;;;;;;;8.52;5.70;;;19.40;54.70;;;;;;5008934;28;20034;-63
2022/12/05 00:04:03;;;;;;;7.90;5.70;;;19.40;54.60;;;;;;5007028;28;20049;-65
2022/12/05 00:06:30;;;;;;;9.32;5.78;;;19.40;54.60;;;;;;5000042;28;20038;-76
2022/12/05 00:08:57;;;;;;;10.25;6.00;;;19.40;54.60;;;;;;5006462;28;20038;-71
2022/12/05 00:11:26;;;;;;;7.90;5.90;;;19.40;54.50;;;;;;5001698;28;20034;-75
2022/12/05 00:13:52;;;;;;;;;;;19.50;54.50;;;;;;5007003;28;20045;-77
2022/12/05 00:16:20;;;;;;;8.82;5.65;;;19.40;54.40;;;;;;5004738;28;21464;-65
2022/12/05 00:18:46;;;;;;;9.65;6.00;;;19.40;54.40;;;;;;5006462;28;20520;-71
2022/12/05 00:21:22;;;;;;;10.00;5.85;;;19.40;54.40;;;;;;5007192;28;20050;-67
2022/12/05 00:23:49;;;;;;;8.80;5.95;;;19.40;54.30;;;;;;5001332;28;20134;-77
2022/12/05 00:26:15;;;;;;;8.60;5.75;;;19.40;54.30;;;;;;5004111;28;20045;-76
2022/12/05 00:28:40;;;;;;;9.13;5.70;;;19.50;54.40;;;;;;5008376;28;20034;-62
2022/12/05 00:31:09;;;;;;;7.82;5.63;;;19.40;54.30;;;;;;5017657;28;20104;-63
2022/12/05 00:33:35;;;;;;;;;;;19.40;54.30;;;;;;5009612;28;20072;-62
2022/12/05 00:36:06;;;;;;;9.73;5.75;;;19.40;54.20;;;;;;5008278;28;19949;-63
2022/12/05 00:38:32;;;;;;;7.32;5.75;;;19.40;54.20;;;;;;5003930;28;20050;-62
2022/12/05 00:41:03;;;;;;;6.47;4.97;;;19.40;54.20;;;;;;5009841;28;20412;-63
2022/12/05 00:43:29;;;;;;;8.18;5.63;;;19.40;54.20;;;;;;5001855;28;20045;-63
2022/12/05 00:45:55;;;;;;;8.35;5.10;;;19.40;54.20;;;;;;5005081;28;20081;-63
2022/12/05 00:48:20;;;;;;;8.48;5.50;;;19.40;54.20;;;;;;5006331;28;20053;-61
2022/12/05 00:50:46;;;;;;;7.68;5.50;;;19.40;54.70;;;;;;5003438;28;20046;-62
2022/12/05 00:53:11;;;;;;;8.45;5.70;;;19.40;54.10;;;;;;4996193;28;20049;-64
2022/12/05 00:55:37;;;;;;;8.77;5.78;;;19.40;54.10;;;;;;5009064;28;20167;-70
2022/12/05 00:58:03;;;;;;;8.20;5.63;;;19.40;54.10;;;;;;4997071;28;20104;-71
2022/12/05 01:00:28;;;;;;;7.88;5.60;;;19.40;54.00;;;;;;4995815;28;20034;-66
2022/12/05 01:02:54;;;;;;;8.93;5.82;;;19.40;54.00;;;;;;4993754;28;20046;-63
2022/12/05 01:05:20;;;;;;;7.63;5.35;;;19.40;54.00;;;;;;5004010;28;20034;-62
2022/12/05 01:07:46;;;;;;;8.40;5.60;;;19.40;53.90;;;;;;4998765;28;20053;-67
2022/12/05 01:10:11;;;;;;;8.10;5.15;;;19.40;53.90;;;;;;4991619;28;20044;-63
2022/12/05 01:12:37;;;;;;;7.68;5.40;;;19.40;53.90;;;;;;5002276;28;20524;-77
2022/12/05 01:15:03;;;;;;;7.80;5.03;;;19.40;53.90;;;;;;5007787;28;20128;-64
2022/12/05 01:17:29;;;;;;;7.38;4.88;;;19.40;53.80;;;;;;5004282;28;20041;-62
2022/12/05 01:19:54;;;;;;;6.90;4.82;;;19.40;53.80;;;;;;5003489;28;20393;-65
2022/12/05 01:22:20;;;;;;;8.55;5.40;;;19.40;53.80;;;;;;5004373;28;21506;-66
2022/12/05 01:24:45;;;;;;;7.25;5.15;;;19.40;53.80;;;;;;5000843;28;20037;-65
2022/12/05 01:27:11;;;;;;;7.82;5.18;;;19.40;53.70;;;;;;5003271;28;20050;-62
2022/12/05 01:29:37;;;;;;;9.02;5.53;;;19.40;53.70;;;;;;4998441;28;20041;-68
2022/12/05 01:32:02;;;;;;;6.93;4.85;;;19.40;53.70;;;;;;4995888;28;20049;-69
2022/12/05 01:34:28;;;;;;;7.50;5.07;;;19.40;53.70;;;;;;5007727;28;20046;-70
2022/12/05 01:36:54;;;;;;;7.88;5.47;;;19.40;53.60;;;;;;5000720;28;20040;-68
2022/12/05 01:39:20;;;;;;;8.18;5.20;;;19.40;53.60;;;;;;5002868;28;20468;-64
2022/12/05 01:41:49;;;;;;;6.88;5.18;;;19.40;53.60;;;;;;4994553;28;20046;-67
2022/12/05 01:44:14;;;;;;;7.22;5.18;;;19.40;53.70;;;;;;4995123;28;20116;-72
2022/12/05 01:46:51;;;;;;;9.65;5.32;;;19.40;53.70;;;;;;5004265;28;20037;-76
2022/12/05 01:49:22;;;;;;;8.68;5.28;;;19.40;54.30;;;;;;5004271;28;20058;-74
2022/12/05 01:52:10;;;;;;;7.65;5.22;;;19.40;53.60;;;;;;5000308;28;20116;-74
2022/12/05 01:54:37;;;;;;;7.10;4.63;;;19.40;53.60;;;;;;4997229;28;20493;-66
2022/12/05 01:57:06;;;;;;;6.57;5.05;;;19.40;53.60;;;;;;5002228;28;20887;-71
2022/12/05 01:59:37;;;;;;;6.65;4.88;;;19.40;53.60;;;;;;5005252;28;20095;-70
2022/12/05 02:02:04;;;;;;;7.80;5.13;;;19.40;53.60;;;;;;5007377;28;20148;-76
2022/12/05 02:04:38;;;;;;;7.65;4.68;;;19.30;53.60;;;;;;4998716;28;20093;-65
2022/12/05 02:07:04;;;;;;;7.47;5.35;;;19.40;53.60;;;;;;5000300;28;20049;-65
2022/12/05 02:09:29;;;;;;;7.88;5.43;;;19.40;53.50;;;;;;5005473;28;20084;-76
2022/12/05 02:12:00;;;;;;;7.93;4.78;;;19.40;53.50;;;;;;4992831;28;20053;-67
2022/12/05 02:14:45;;;;;;;6.85;5.07;;;19.40;53.50;;;;;;5006299;28;20046;-70
2022/12/05 02:17:28;;;;;;;8.38;5.15;;;19.40;53.50;;;;;;5003395;28;20161;-73
2022/12/05 02:20:08;;;;;;;7.18;5.00;;;19.40;53.40;;;;;;5000200;28;20159;-77
2022/12/05 02:22:55;;;;;;;6.93;4.78;;;19.40;53.40;;;;;;5008271;28;20048;-74
2022/12/05 02:26:04;;;;;;;6.60;5.10;;;19.40;53.40;;;;;;4998028;28;20045;-73
2022/12/05 02:29:04;;;;;;;6.72;4.43;;;19.40;53.40;;;;;;4994642;28;20374;-66
2022/12/05 02:31:55;;;;;;;7.88;5.05;;;19.40;53.40;;;;;;4988480;28;20523;-75
2022/12/05 02:34:30;;;;;;;7.63;5.18;;;19.40;53.40;;;;;;5010418;28;20046;-66
2022/12/05 02:37:21;;;;;;;6.00;4.35;;;19.40;53.40;;;;;;4998928;28;20939;-75
2022/12/05 02:40:02;;;;;;;8.32;5.03;;;19.40;53.30;;;;;;5004066;28;20588;-62
2022/12/05 02:42:35;;;;;;;7.43;4.80;;;19.40;53.30;;;;;;5000650;28;20045;-69
2022/12/05 02:45:06;;;;;;;7.70;4.80;;;19.40;53.30;;;;;;5002151;28;20444;-74
2022/12/05 02:47:37;;;;;;;6.53;4.70;;;19.40;53.30;;;;;;5012133;28;20056;-76
2022/12/05 02:50:09;;;;;;;6.75;4.53;;;19.40;53.30;;;;;;5004053;28;20153;-72
2022/12/05 02:52:36;;;;;;;6.18;4.95;;;19.40;53.30;;;;;;5004670;28;20112;-69
2022/12/05 02:55:03;;;;;;;6.78;4.90;;;19.40;53.30;;;;;;5005332;28;20493;-74
2022/12/05 02:57:30;;;;;;;6.65;4.60;;;19.40;53.30;;;;;;5007905;28;20041;-64
2022/12/05 02:59:56;;;;;;;7.43;4.32;;;19.40;53.20;;;;;;5002299;28;20092;-76
2022/12/05 03:02:25;;;;;;;6.55;4.65;;;19.40;53.20;;;;;;5007795;28;20064;-76
2022/12/05 03:04:51;;;;;;;5.93;4.57;;;19.40;53.20;;;;;;5005139;28;20033;-64
2022/12/05 03:07:18;;;;;;;6.32;4.28;;;19.40;53.20;;;;;;5010196;28;20400;-73
2022/12/05 03:09:54;;;;;;;5.93;4.25;;;19.40;53.20;;;;;;5007366;28;20083;-75
2022/12/05 03:12:30;;;;;;;6.57;4.55;;;19.40;53.20;;;;;;5003467;28;20045;-76
2022/12/05 03:15:06;;;;;;;6.03;4.22;;;19.40;53.50;;;;;;5009333;28;20041;-76
2022/12/05 03:17:38;;;;;;;6.75;4.30;;;19.40;53.20;;;;;;5011452;28;20049;-76
2022/12/05 03:20:13;;;;;;;5.68;4.30;;;19.40;53.20;;;;;;5006455;28;20061;-76
2022/12/05 03:22:55;;;;;;;5.30;4.28;;;19.40;53.20;;;;;;5011642;28;20543;-72
2022/12/05 03:25:24;;;;;;;5.10;4.03;;;19.40;53.20;;;;;;4997615;28;20108;-76
2022/12/05 03:27:56;;;;;;;5.72;4.30;;;19.40;53.20;;;;;;5009982;28;20124;-72
2022/12/05 03:30:22;;;;;;;5.75;3.97;;;19.40;53.20;;;;;;5003063;28;20408;-66
2022/12/05 03:32:51;;;;;;;5.40;3.95;;;19.40;53.20;;;;;;5004671;28;20081;-70
2022/12/05 03:35:24;;;;;;;;;;;19.40;53.30;;;;;;5009307;28;20386;-75
2022/12/05 03:37:58;;;;;;;6.10;4.15;;;19.40;53.20;;;;;;5003294;28;19921;-76
2022/12/05 03:40:57;;;;;;;6.13;4.45;;;19.40;53.30;;;;;;5007187;28;20034;-66
2022/12/05 03:43:39;;;;;;;4.97;3.90;;;19.40;53.20;;;;;;5008225;28;20070;-68
2022/12/05 03:46:04;;;;;;;5.47;4.05;;;19.40;53.20;;;;;;4998339;28;20046;-74
2022/12/05 03:48:41;;;;;;;5.90;3.65;;;19.40;53.20;;;;;;5006882;28;21097;-64
2022/12/05 03:51:09;;;;;;;5.90;4.05;;;19.40;53.20;;;;;;4998999;28;20488;-61
2022/12/05 03:53:41;;;;;;;7.32;3.80;;;19.40;53.20;;;;;;5003489;28;20713;-61
2022/12/05 03:56:21;;;;;;;5.97;3.85;;;19.40;53.20;;;;;;5004113;28;20079;-62
2022/12/05 03:58:55;;;;;;;5.43;3.90;;;19.40;53.20;;;;;;5002804;28;20053;-63
2022/12/05 04:01:24;;;;;;;4.82;3.75;;;19.40;53.20;;;;;;5004141;28;20038;-62
2022/12/05 04:03:56;;;;;;;5.55;3.67;;;19.40;53.20;;;;;;5003013;28;20038;-61
2022/12/05 04:06:32;;;;;;;5.07;3.75;;;19.40;53.20;;;;;;5005191;28;20046;-60
2022/12/05 04:09:21;;;;;;;4.95;3.60;;;19.40;53.20;;;;;;5008893;28;20524;-63
2022/12/05 04:11:53;;;;;;;4.60;3.72;;;19.40;53.20;;;;;;5004027;28;20038;-68
2022/12/05 04:14:36;;;;;;;6.45;4.22;;;19.40;53.30;;;;;;4988114;28;20116;-66
2022/12/05 04:17:09;;;;;;;4.88;3.40;;;19.30;53.20;;;;;;5007658;28;20135;-64
2022/12/05 04:22:26;;;;;;;4.50;3.67;;;19.30;53.10;;;;;;5009993;28;20050;-65
2022/12/05 04:27:55;;;;;;;5.07;3.83;;;19.40;53.10;;;;;;5022967;28;20524;-61
2022/12/05 04:30:24;;;;;;;4.32;3.15;;;19.40;53.10;;;;;;5003698;28;20052;-62
2022/12/05 04:33:01;;;;;;;4.72;3.40;;;19.40;53.20;;;;;;5005706;28;20042;-68
2022/12/05 04:35:57;;;;;;;4.82;3.40;;;19.40;53.10;;;;;;5009865;28;20054;-62
2022/12/05 04:38:31;;;;;;;4.72;3.50;;;19.40;53.90;;;;;;4996045;28;20045;-75
2022/12/05 04:41:02;;;;;;;4.32;3.05;;;19.40;53.10;;;;;;5007147;28;20053;-71
2022/12/05 04:43:32;;;;;;;4.43;3.10;;;19.40;53.20;;;;;;5001118;28;20041;-69
2022/12/05 04:45:59;;;;;;;4.53;3.05;;;19.40;53.10;;;;;;5001753;28;20458;-74
2022/12/05 04:48:26;;;;;;;3.50;2.95;;;19.40;53.10;;;;;;5002375;28;20088;-74
2022/12/05 04:50:53;;;;;;;3.88;3.03;;;19.40;53.10;;;;;;5003931;28;20449;-75
2022/12/05 04:53:22;;;;;;;3.53;2.78;;;19.40;53.10;;;;;;5007152;28;20048;-75
2022/12/05 04:55:51;;;;;;;4.78;3.30;;;19.40;53.10;;;;;;5008121;28;20099;-74
2022/12/05 04:58:26;;;;;;;4.32;3.08;;;19.40;53.10;;;;;;5002935;28;20084;-74
2022/12/05 05:01:04;;;;;;;4.00;3.00;;;19.40;53.10;;;;;;5003913;28;20470;-73
2022/12/05 05:03:51;;;;;;;3.90;2.97;;;19.40;53.10;;;;;;5006824;28;20413;-70
2022/12/05 05:06:17;;;;;;;3.72;3.15;;;19.40;53.00;;;;;;5004830;28;20066;-69
2022/12/05 05:08:53;;;;;;;3.92;3.00;;;19.40;53.10;;;;;;5005570;28;20091;-65
2022/12/05 05:11:25;;;;;;;4.07;2.88;;;19.40;53.00;;;;;;5005737;28;20091;-69
2022/12/05 05:13:51;;;;;;;4.18;3.03;;;19.40;53.00;;;;;;4999756;28;20532;-70
2022/12/05 05:16:29;;;;;;;4.00;2.95;;;19.40;53.10;;;;;;5009363;28;20129;-70
2022/12/05 05:18:55;;;;;;;3.97;3.07;;;19.40;53.00;;;;;;5001740;28;20070;-77
2022/12/05 05:21:30;;;;;;;3.85;2.72;;;19.40;53.10;;;;;;5004226;28;20297;-71
2022/12/05 05:23:58;;;;;;;3.42;2.65;;;19.40;53.10;;;;;;5002422;28;20109;-72
2022/12/05 05:26:27;;;;;;;3.72;2.97;;;19.40;53.10;;;;;;5003815;28;20084;-73
2022/12/05 05:28:53;;;;;;;4.60;3.03;;;19.40;53.00;;;;;;5002940;28;20112;-66
2022/12/05 05:31:19;;;;;;;3.45;2.50;;;19.40;53.10;;;;;;5003375;28;20493;-70
2022/12/05 05:33:49;;;;;;;4.03;2.90;;;19.40;53.00;;;;;;5004529;28;20125;-62
2022/12/05 05:36:15;;;;;;;3.53;2.63;;;19.40;53.00;;;;;;5010956;28;20079;-73
2022/12/05 05:38:43;;;;;;;3.45;2.72;;;19.40;53.00;;;;;;4997542;28;20501;-70
2022/12/05 05:41:14;;;;;;;3.55;2.67;;;19.40;53.00;;;;;;4998283;28;20508;-75
2022/12/05 05:43:42;;;;;;;3.42;2.45;;;19.40;53.00;;;;;;5005268;28;20033;-74
2022/12/05 05:46:08;;;;;;;3.17;2.47;;;19.40;53.00;;;;;;4999488;28;20181;-70
2022/12/05 05:48:34;;;;;;;4.68;2.97;;;19.40;53.00;;;;;;5001579;28;20054;-62
2022/12/05 05:51:01;;;;;;;3.63;2.60;;;19.40;53.00;;;;;;5001748;28;20048;-70
2022/12/05 05:53:26;;;;;;;3.38;2.40;;;19.40;53.00;;;;;;5000383;28;20113;-70
2022/12/05 05:55:52;;;;;;;3.35;2.45;;;19.40;53.00;;;;;;4998652;28;20136;-70
2022/12/05 05:58:17;;;;;;;3.30;2.53;;;19.40;53.00;;;;;;5004347;28;20401;-67
2022/12/05 06:00:43;;;;;;;3.45;2.67;;;19.40;53.00;;;;;;4999352;28;20054;-76
2022/12/05 06:03:08;;;;;;;3.53;2.35;;;19.40;53.00;;;;;;5001237;28;20038;-65
2022/12/05 06:05:34;;;;;;;3.10;2.53;;;19.40;53.00;;;;;;4996769;28;20042;-62
2022/12/05 06:08:01;;;;;;;3.60;2.40;;;19.40;53.00;;;;;;4999678;28;20046;-72
2022/12/05 06:10:28;;;;;;;3.30;2.38;;;19.40;52.90;;;;;;5002634;28;20068;-70
2022/12/05 06:12:54;;;;;;;3.40;2.50;;;19.40;53.00;;;;;;4998570;28;20073;-70
2022/12/05 06:15:20;;;;;;;3.50;2.33;;;19.40;52.90;;;;;;5001001;28;20160;-67
2022/12/05 06:17:45;;;;;;;3.03;2.30;;;19.40;52.90;;;;;;5002866;28;20556;-72
2022/12/05 06:20:11;;;;;;;2.95;2.30;;;19.40;53.00;;;;;;5018725;28;20097;-75
2022/12/05 06:22:37;;;;;;;2.95;2.45;;;19.40;52.90;;;;;;5010775;28;20049;-76
2022/12/05 06:25:03;;;;;;;3.17;2.40;;;19.40;53.00;;;;;;4999566;28;20175;-72
2022/12/05 06:27:32;;;;;;;3.15;2.10;;;19.40;53.00;;;;;;5001649;28;20065;-76
2022/12/05 06:29:58;;;;;;;2.50;2.03;;;19.40;53.00;;;;;;5008605;28;20041;-75
2022/12/05 06:32:24;;;;;;;3.22;2.30;;;19.40;53.00;;;;;;5000105;28;20046;-67
2022/12/05 06:34:50;;;;;;;2.90;2.13;;;19.40;53.10;;;;;;5013977;28;20052;-75
2022/12/05 06:37:16;;;;;;;4.88;1.95;;;19.40;53.30;;;;;;5007089;28;20225;-74
2022/12/05 06:39:42;;;;;;;3.67;2.50;;;19.40;53.40;;;;;;5004233;28;20123;-65
2022/12/05 06:42:07;;;;;;;5.35;2.40;;;19.40;53.40;;;;;;5012653;28;20046;-75
2022/12/05 06:44:33;;;;;;;2.70;2.10;;;19.40;53.50;;;;;;5007463;28;20046;-72
2022/12/05 06:46:58;;;;;;;2.72;1.90;;;19.40;53.50;;;;;;5012152;28;20079;-77
2022/12/05 06:49:25;;;;;;;3.00;2.00;;;19.40;53.50;;;;;;5010372;28;20152;-70
2022/12/05 06:51:52;;;;;;;3.88;1.95;;;19.40;53.60;;;;;;5006309;28;20029;-74
2022/12/05 06:54:18;;;;;;;2.63;2.00;;;19.40;53.60;;;;;;5006989;28;20072;-75
2022/12/05 06:56:44;;;;;;;8.77;2.15;;;19.40;53.60;;;;;;5002658;28;20698;-75
2022/12/05 06:59:09;;;;;;;3.30;2.10;;;19.50;53.70;;;;;;5003258;28;20042;-67
2022/12/05 07:01:38;;;;;;;2.88;1.77;;;19.50;53.90;;;;;;5002140;28;20262;-77
2022/12/05 07:04:04;;;;;;;;;;;19.50;54.00;;;;;;5011665;28;20038;-70
2022/12/05 07:06:30;;;;;;;4.43;2.00;;;19.50;53.90;;;;;;4998670;28;19921;-62
2022/12/05 07:08:55;;;;;;;5.50;2.13;;;19.50;53.80;;;;;;5012522;28;20049;-63
2022/12/05 07:11:21;;;;;;;7.63;2.17;;;19.50;53.80;;;;;;5007088;28;20505;-71
2022/12/05 07:13:46;;;;;;;9.77;2.10;;;19.50;53.80;;;;;;5006697;28;20038;-68
2022/12/05 07:16:12;;;;;;;4.40;1.90;;;19.50;53.90;;;;;;5008832;28;20097;-64
2022/12/05 07:18:38;;;;;;;3.95;2.00;;;19.50;54.00;;;;;;5004759;28;20034;-75
2022/12/05 07:21:09;;;;;;;6.53;2.10;;;19.50;54.00;;;;;;5009680;28;20038;-60
2022/12/05 07:23:35;;;;;;;5.30;2.13;;;19.40;54.00;;;;;;4997755;28;20038;-78
2022/12/05 07:26:05;;;;;;;3.50;2.10;;;19.40;54.90;;;;;;4996444;28;20052;-78
2022/12/05 07:28:32;;;;;;;6.35;2.20;;;19.40;54.10;;;;;;4990210;28;20048;-68
2022/12/05 07:31:18;;;;;;;3.58;1.85;;;19.40;54.10;;;;;;4996818;28;20046;-76
2022/12/05 07:33:44;;;;;;;4.47;1.85;;;19.40;54.10;;;;;;5005732;28;20034;-81
2022/12/05 07:36:12;;;;;;;3.67;1.80;;;19.40;54.20;;;;;;5004669;28;20065;-80
2022/12/05 07:38:39;;;;;;;6.68;2.20;;;19.40;54.30;;;;;;4998752;28;20136;-78
2022/12/05 07:41:12;;;;;;;7.18;1.98;;;19.40;54.20;;;;;;5002081;28;20038;-71
2022/12/05 07:43:38;;;;;;;4.60;1.83;;;19.30;54.10;;;;;;5010196;28;20041;-76
2022/12/05 07:46:05;;;;;;;4.05;1.80;;;19.30;54.10;;;;;;5001589;28;20038;-78
2022/12/05 07:48:31;;;;;;;6.72;2.47;;;19.30;54.10;;;;;;5003710;28;20134;-80
2022/12/05 07:51:05;;;;;;;4.18;1.95;;;19.30;54.10;;;;;;5012378;28;20041;-77
2022/12/05 07:53:32;;;;;;;5.55;1.90;;;19.30;54.10;;;;;;5005901;28;20038;-79
2022/12/05 07:55:59;;;;;;;3.10;2.03;;;19.30;54.10;;;;;;5006229;28;20953;-79
2022/12/05 07:58:25;;;;;;;3.00;2.00;;;19.30;54.10;;;;;;5008112;28;20034;-78
2022/12/05 08:00:50;;;;;;;4.40;1.60;;;19.30;54.00;;;;;;5005632;28;20050;-65
2022/12/05 08:03:16;;;;;;;4.88;1.80;;;19.30;54.10;;;;;;5008025;28;20065;-81
2022/12/05 08:05:42;;;;;;;3.45;1.80;;;19.30;54.00;;;;;;5006087;28;20026;-70
2022/12/05 08:08:07;;;;;;;6.80;1.67;;;19.30;54.00;;;;;;5006224;28;20076;-79
2022/12/05 08:10:34;;;;;;;3.33;1.88;;;19.30;54.00;;;;;;5010662;28;20038;-79
2022/12/05 08:13:01;;;;;;;3.47;1.83;;;19.30;53.90;;;;;;5001781;28;20113;-81
2022/12/05 08:15:26;;;;;;;3.22;2.00;;;19.30;53.80;;;;;;5006376;28;20565;-80
2022/12/05 08:17:52;;;;;;;3.53;2.05;;;19.30;53.80;;;;;;5005130;28;20073;-74
2022/12/05 08:20:17;;;;;;;4.38;1.92;;;19.30;53.80;;;;;;5005399;28;20046;-81
2022/12/05 08:22:43;;;;;;;12.77;2.30;;;19.40;53.80;;;;;;5010235;28;20033;-79
2022/12/05 08:25:09;;;;;;;5.57;1.73;;;19.40;53.80;;;;;;5005541;28;20042;-79
2022/12/05 08:27:35;;;;;;;2.78;1.95;;;19.40;53.80;;;;;;5003496;28;20382;-81
2022/12/05 08:30:00;;;;;;;3.13;1.83;;;19.40;53.80;;;;;;5010937;28;20091;-81
2022/12/05 08:32:26;;;;;;;2.63;1.80;;;19.40;53.80;;;;;;5004420;28;20022;-77
2022/12/05 08:34:52;;;;;;;4.15;1.95;;;19.40;53.70;;;;;;5009410;28;20094;-81
2022/12/05 08:37:17;;;;;;;3.03;1.83;;;19.40;53.70;;;;;;5001581;28;20045;-76
2022/12/05 08:39:43;;;;;;;6.75;1.85;;;19.40;53.60;;;;;;5004601;28;20034;-80
2022/12/05 08:42:09;;;;;;;2.85;1.60;;;19.40;53.70;;;;;;5008908;28;20075;-81
2022/12/05 08:44:34;;;;;;;4.72;1.90;;;19.40;53.60;;;;;;5008156;28;20042;-77
2022/12/05 08:47:00;;;;;;;3.45;1.92;;;19.40;53.70;;;;;;5005717;28;20042;-71
2022/12/05 08:49:25;;;;;;;4.45;2.10;;;19.40;53.60;;;;;;5002036;28;20088;-81
2022/12/05 08:51:51;;;;;;;2.60;1.65;;;19.40;53.60;;;;;;5006246;28;20180;-75
2022/12/05 08:54:17;;;;;;;3.10;1.65;;;19.40;53.50;;;;;;5009159;28;20042;-74
2022/12/05 08:56:42;;;;;;;3.40;2.00;;;19.40;53.50;;;;;;5007544;28;20128;-81
2022/12/05 08:59:08;;;;;;;4.07;1.83;;;19.40;53.50;;;;;;5008537;28;20038;-81
2022/12/05 09:01:37;;;;;;;2.63;1.95;;;19.40;53.50;;;;;;5001986;28;20076;-77
2022/12/05 09:04:04;;;;;;;2.95;1.52;;;19.40;53.50;;;;;;5008711;28;20061;-78
2022/12/05 09:06:30;;;;;;;5.55;1.88;;;19.40;53.40;;;;;;5006272;28;20042;-76
2022/12/05 09:08:58;;;;;;;3.55;1.70;;;19.40;53.50;;;;;;5004392;28;20065;-63
2022/12/05 09:11:32;;;;;;;3.22;2.03;;;19.40;53.40;;;;;;5012039;28;20046;-63
2022/12/05 09:13:59;;;;;;;4.13;1.73;;;19.40;53.40;;;;;;5009303;28;20042;-76
2022/12/05 09:16:30;;;;;;;3.22;1.88;;;19.40;53.40;;;;;;4997383;28;20042;-75
2022/12/05 09:18:59;;;;;;;3.53;2.00;;;19.50;53.40;;;;;;4997609;28;20172;-63
2022/12/05 09:21:27;;;;;;;2.42;1.70;;;19.40;53.40;;;;;;4998781;28;20082;-79
2022/12/05 09:23:53;;;;;;;3.15;1.90;;;19.40;53.30;;;;;;5004840;28;20049;-70
2022/12/05 09:26:23;;;;;;;5.63;1.70;;;19.50;53.40;;;;;;4999320;28;20061;-66
2022/12/05 09:28:50;;;;;;;3.90;1.80;;;19.40;53.40;;;;;;5002089;28;20041;-78
2022/12/05 09:31:24;;;;;;;2.95;1.73;;;19.50;53.40;;;;;;5006786;28;20037;-70
2022/12/05 09:33:50;;;;;;;2.45;1.70;;;19.50;53.40;;;;;;5007582;28;20046;-75
2022/12/05 09:36:18;;;;;;;1.70;1.40;;;19.50;53.50;;;;;;5002698;28;20084;-68
2022/12/05 09:38:44;;;;;;;2.10;1.73;;;19.50;53.50;;;;;;5001585;28;20477;-69
2022/12/05 09:44:43;;;;;;;2.85;1.80;;;19.50;53.50;;;;;;5004799;28;20041;-75
2022/12/05 09:47:31;;;;;;;2.80;1.77;;;19.50;53.50;;;;;;5002050;28;20057;-72
2022/12/05 09:50:17;;;;;;;;;;;19.50;53.50;;;;;;5000009;28;20501;-77
2022/12/05 09:53:07;;;;;;;2.95;1.77;;;19.50;53.50;;;;;;4999901;28;20373;-68
2022/12/05 09:55:59;;;;;;;2.70;1.83;;;19.50;53.50;;;;;;4997487;28;20054;-64
2022/12/05 09:58:39;;;;;;;3.08;1.98;;;19.50;53.60;;;;;;4997495;28;20131;-68
2022/12/05 10:01:21;;;;;;;3.92;1.70;;;19.50;53.70;;;;;;4998090;28;20129;-71
2022/12/05 10:04:14;;;;;;;3.55;1.70;;;19.50;53.70;;;;;;5001709;28;20095;-69
2022/12/05 10:07:09;;;;;;;5.18;2.00;;;19.50;53.80;;;;;;5013146;28;20037;-69
2022/12/05 10:10:12;;;;;;;2.53;1.70;;;19.50;53.70;;;;;;4996729;28;20049;-68
2022/12/05 10:12:56;;;;;;;3.42;1.90;;;19.50;53.60;;;;;;4999691;28;20041;-70
2022/12/05 10:15:31;;;;;;;2.05;1.52;;;19.50;53.70;;;;;;5004305;28;20084;-64
2022/12/05 10:18:13;;;;;;;2.63;1.45;;;19.50;53.60;;;;;;5000768;28;20047;-72
2022/12/05 10:21:01;;;;;;;4.97;1.90;;;19.50;53.60;;;;;;5014195;28;20121;-64
2022/12/05 10:23:32;;;;;;;4.95;1.90;;;19.60;53.60;;;;;;4999227;28;20054;-62
2022/12/05 10:26:04;;;;;;;2.33;1.60;;;19.50;53.60;;;;;;5004712;28;20045;-64
2022/12/05 10:28:29;;;;;;;3.85;1.90;;;19.60;53.60;;;;;;5002424;28;20025;-63
2022/12/05 10:30:59;;;;;;;3.78;1.98;;;19.60;53.60;;;;;;5006323;28;20106;-62
2022/12/05 10:33:32;;;;;;;3.67;1.80;;;19.60;53.60;;;;;;5000130;28;20093;-64
2022/12/05 10:35:57;;;;;;;3.50;1.88;;;19.60;53.60;;;;;;5001090;28;20486;-62
2022/12/05 10:38:30;;;;;;;1.90;1.60;;;19.60;53.60;;;;;;5001340;28;20064;-63
2022/12/05 10:40:59;;;;;;;4.25;1.70;;;19.60;53.60;;;;;;4999773;28;20039;-63
2022/12/05 10:43:28;;;;;;;7.60;2.00;;;19.60;53.60;;;;;;5003626;28;20097;-64
2022/12/05 10:45:54;;;;;;;3.08;1.77;;;19.60;53.50;;;;;;5000206;28;20041;-62
2022/12/05 10:48:23;;;;;;;6.13;1.70;;;19.60;53.60;;;;;;5003092;28;20203;-61
2022/12/05 10:50:52;;;;;;;2.60;1.83;;;19.60;53.50;;;;;;4998902;28;20278;-62
2022/12/05 10:53:39;;;;;;;3.30;1.65;;;19.60;53.60;;;;;;4982166;28;20045;-67
2022/12/05 10:56:36;;;;;;;3.13;1.63;;;19.60;53.60;;;;;;5001440;28;20069;-62
2022/12/05 10:59:05;;;;;;;4.70;1.70;;;19.60;53.70;;;;;;4996628;28;20046;-63
2022/12/05 11:01:30;;;;;;;4.47;1.70;;;19.70;53.70;;;;;;5014975;28;20096;-66
2022/12/05 11:03:59;;;;;;;3.03;1.60;;;19.40;53.50;;;;;;4997812;28;20501;-66
2022/12/05 11:06:30;;;;;;;6.20;1.98;;;19.80;53.80;;;;;;5001087;28;20516;-64
2022/12/05 11:09:38;;;;;;;3.10;1.70;;;19.60;53.80;;;;;;5005477;28;20103;-65
2022/12/05 11:12:16;;;;;;;2.70;1.63;;;19.60;53.80;;;;;;5007909;28;20083;-66
2022/12/05 11:15:00;;;;;;;2.78;1.90;;;19.60;53.80;;;;;;5011954;28;20057;-79
2022/12/05 11:17:33;;;;;;;6.75;1.90;;;19.60;53.80;;;;;;4998565;28;20853;-66
2022/12/05 11:19:59;;;;;;;5.57;1.88;;;19.60;53.90;;;;;;5007367;28;20088;-68
2022/12/05 11:22:34;;;;;;;5.40;1.83;;;19.60;54.60;;;;;;5005298;28;20144;-71
2022/12/05 11:25:01;;;;;;;7.68;1.80;;;19.60;53.80;;;;;;5003664;28;20049;-71
2022/12/05 11:27:30;;;;;;;1.85;1.45;;;19.60;53.80;;;;;;5006270;28;20052;-68
2022/12/05 11:30:08;;;;;;;3.95;1.55;;;19.60;53.80;;;;;;5003186;28;20122;-72
2022/12/05 11:32:34;;;;;;;6.72;1.80;;;19.70;53.80;;;;;;5001260;28;20042;-65
2022/12/05 11:35:12;;;;;;;4.80;1.80;;;19.60;53.80;;;;;;5004826;28;20452;-76
2022/12/05 11:37:43;;;;;;;2.25;1.48;;;19.60;53.80;;;;;;5019966;28;20467;-65
2022/12/05 11:40:24;;;;;;;2.38;1.55;;;19.60;53.80;;;;;;5014740;28;20516;-74
2022/12/05 11:43:19;;;;;;;4.05;1.70;;;19.60;53.70;;;;;;5015683;28;20049;-70
2022/12/05 11:45:55;;;;;;;3.10;1.80;;;19.60;53.70;;;;;;5015223;28;20049;-72
2022/12/05 11:48:57;;;;;;;2.08;1.33;;;19.60;53.70;;;;;;5018727;28;20084;-67
2022/12/05 11:51:44;;;;;;;4.30;1.50;;;19.60;53.70;;;;;;5001744;28;20381;-77
2022/12/05 11:54:19;;;;;;;2.55;1.58;;;19.60;53.80;;;;;;5011004;28;20046;-65
2022/12/05 11:56:57;;;;;;;4.03;1.70;;;19.60;53.70;;;;;;4992661;28;20062;-65
2022/12/05 11:59:56;;;;;;;4.70;1.65;;;19.60;53.80;;;;;;5006648;28;20029;-73
2022/12/05 12:02:40;;;;;;;3.22;1.70;;;19.60;53.80;;;;;;5003790;28;20054;-69
2022/12/05 12:05:16;;;;;;;2.67;1.50;;;19.60;53.80;;;;;;5004715;28;20099;-73
2022/12/05 12:08:06;;;;;;;2.80;1.88;;;19.60;53.80;;;;;;5003108;28;20052;-80
2022/12/05 12:10:53;;;;;;;4.63;1.90;;;19.60;53.80;;;;;;5008399;28;20086;-67
2022/12/05 12:13:43;;;;;;;2.22;1.50;;;19.60;53.70;;;;;;5002859;28;20156;-67
2022/12/05 12:16:28;;;;;;;2.00;1.48;;;19.60;53.80;;;;;;5007219;28;20041;-63
2022/12/05 12:18:59;;;;;;;2.38;1.80;;;19.60;53.80;;;;;;5005636;28;20042;-65
2022/12/05 12:21:49;;;;;;;2.13;1.35;;;19.60;53.80;;;;;;5006595;28;20037;-65
2022/12/05 12:24:49;;;;;;;3.95;2.08;;;19.60;53.80;;;;;;5007615;28;20095;-69
2022/12/05 12:27:27;;;;;;;2.80;1.42;;;19.60;53.80;;;;;;5005004;28;20095;-62
2022/12/05 12:30:27;;;;;;;2.80;1.77;;;19.60;53.80;;;;;;4993860;28;20084;-65
2022/12/05 12:33:15;;;;;;;2.63;1.58;;;19.60;53.70;;;;;;5004581;28;20168;-67
2022/12/05 12:35:43;;;;;;;4.80;1.73;;;19.60;53.50;;;;;;5003893;28;20054;-62
2022/12/05 12:38:20;;;;;;;;;;;19.60;53.50;;;;;;5013465;28;20081;-63
2022/12/05 12:40:48;;;;;;;2.90;1.73;;;19.60;53.40;;;;;;5010921;28;19924;-62
2022/12/05 12:43:47;;;;;;;7.40;1.70;;;19.60;53.50;;;;;;5007905;28;20525;-61
2022/12/05 12:46:38;;;;;;;4.03;1.60;;;19.60;53.40;;;;;;5013580;28;20053;-61
2022/12/05 12:49:48;;;;;;;3.00;1.80;;;19.60;53.40;;;;;;5006102;28;20075;-62
2022/12/05 12:52:21;;;;;;;3.78;1.70;;;19.60;53.50;;;;;;4999149;28;20046;-62
2022/12/05 12:54:59;;;;;;;3.22;1.50;;;19.60;54.30;;;;;;5003854;28;20042;-62
2022/12/05 12:57:31;;;;;;;2.70;1.48;;;19.60;53.50;;;;;;5011439;28;20046;-64
2022/12/05 13:00:11;;;;;;;8.10;1.63;;;19.60;53.60;;;;;;4990711;28;20061;-62
2022/12/05 13:02:47;;;;;;;5.55;1.77;;;19.50;53.50;;;;;;5017619;28;20045;-62
2022/12/05 13:05:32;;;;;;;1.65;1.27;;;19.60;53.60;;;;;;5017495;28;20049;-66
2022/12/05 13:08:05;;;;;;;7.57;1.70;;;19.60;53.60;;;;;;5013454;28;20435;-66
2022/12/05 13:10:41;;;;;;;2.63;1.50;;;19.60;53.60;;;;;;5009732;28;20042;-75
2022/12/05 13:13:13;;;;;;;4.55;1.73;;;19.50;53.60;;;;;;5013635;28;20068;-70
2022/12/05 13:15:48;;;;;;;6.07;1.58;;;19.60;53.80;;;;;;5010115;28;20120;-69
2022/12/05 13:18:20;;;;;;;2.55;1.60;;;19.50;53.70;;;;;;5009974;28;20115;-76
2022/12/05 13:20:52;;;;;;;2.92;1.63;;;19.60;53.70;;;;;;5010083;28;20053;-61
2022/12/05 13:23:22;;;;;;;2.72;1.67;;;19.50;53.60;;;;;;5003545;28;20440;-67